This is the latest recevied weather packets stored in our database for station/object KF0FSA. If no packets are shown the sender has not sent any weather packets the latest 10 day(s).
| Time | Temp. | Humidity | Pressure | Rain* | Wind** | Luminosity | Snow |
|---|---|---|---|---|---|---|---|
| 1777512404 | 10.56° C | 64% | 963.2 hPa | 0 mm | - | 5 W/m² | - |
| 1777512104 | 10.56° C | 63% | 963.2 hPa | 0 mm | - | 7 W/m² | - |
| 1777511804 | 10.56° C | 62% | 963.1 hPa | 0 mm | - | 10 W/m² | - |
| 1777511506 | 11.11° C | 61% | 963.1 hPa | 0 mm | - | 14 W/m² | - |
| 1777511205 | 11.11° C | 59% | 963 hPa | 0 mm | - | 18 W/m² | - |
| 1777510901 | 11.67° C | 59% | 963 hPa | 0 mm | - | 22 W/m² | - |
| 1777510602 | 11.67° C | 58% | 963 hPa | 0 mm | - | 26 W/m² | - |
| 1777510302 | 11.67° C | 57% | 962.9 hPa | 0 mm | - | 36 W/m² | - |
| 1777510127 | 12.22° C | 56% | 963 hPa | 0 mm | - | 44 W/m² | - |
| 1777509702 | 12.22° C | 55% | 963 hPa | 0 mm | - | 53 W/m² | - |
| 1777509402 | 12.78° C | 54% | 963 hPa | 0 mm | - | 62 W/m² | - |
| 1777509102 | 12.78° C | 55% | 963.1 hPa | 0 mm | - | 72 W/m² | - |
| 1777508802 | 12.78° C | 54% | 963.1 hPa | 0 mm | - | 86 W/m² | - |
| 1777508501 | 12.78° C | 54% | 963.1 hPa | 0 mm | - | 98 W/m² | - |
| 1777508202 | 12.78° C | 54% | 963.1 hPa | 0 mm | - | 116 W/m² | - |
| 1777507902 | 12.78° C | 53% | 963.1 hPa | 0 mm | - | 146 W/m² | - |
| 1777507603 | 12.78° C | 53% | 963.1 hPa | 0 mm | - | 175 W/m² | - |
| 1777507423 | 13.33° C | 53% | 963.2 hPa | 0 mm | - | 103 W/m² | - |
| 1777507000 | 13.33° C | 50% | 963.3 hPa | 0 mm | - | 107 W/m² | - |
| 1777506699 | 13.33° C | 51% | 963.3 hPa | 0 mm | - | 174 W/m² | - |
| 1777506400 | 13.33° C | 51% | 963.3 hPa | 0 mm | - | 192 W/m² | - |
| 1777506100 | 13.33° C | 52% | 963.2 hPa | 0 mm | - | 232 W/m² | - |
| 1777505799 | 13.33° C | 51% | 963.4 hPa | 0 mm | - | 242 W/m² | - |
| 1777505497 | 13.33° C | 51% | 963.2 hPa | 0 mm | - | 264 W/m² | - |
| 1777505197 | 12.78° C | 52% | 963.2 hPa | 0 mm | - | 347 W/m² | - |
* Rain latest hour (hover to see other rain measurements)
** Current wind speed in m/s (hover to see current wind gust speed)